createdAt,value
2022-12-18T00:02:18.192Z,91.59
2022-12-18T00:04:44.994Z,92.13
2022-12-18T00:07:11.883Z,92.18
2022-12-18T00:09:39.736Z,92.42
2022-12-18T00:14:43.310Z,92.72
2022-12-18T00:17:10.166Z,92.87
2022-12-18T00:19:37.090Z,92.91
2022-12-18T00:22:04.074Z,93.13
2022-12-18T00:24:30.989Z,93.31
2022-12-18T00:26:57.941Z,93.31
2022-12-18T00:29:24.952Z,93.55
2022-12-18T00:31:51.787Z,93.67
2022-12-18T00:34:18.677Z,93.83
2022-12-18T00:36:45.537Z,94.12
2022-12-18T00:39:13.228Z,94.28
2022-12-18T00:41:58.734Z,94.46
2022-12-18T00:44:25.648Z,94.74
2022-12-18T00:46:52.482Z,95.03
2022-12-18T00:49:20.464Z,95.28
2022-12-18T00:51:47.607Z,95.33
2022-12-18T00:54:15.655Z,95.50
2022-12-18T00:56:50.059Z,95.73
2022-12-18T00:59:18.871Z,96.02
2022-12-18T01:01:46.710Z,96.37
2022-12-18T01:04:14.268Z,96.64
2022-12-18T01:06:41.335Z,96.67
2022-12-18T01:09:08.175Z,96.87
2022-12-18T01:11:35.007Z,97.21
2022-12-18T01:14:01.876Z,97.22
2022-12-18T01:16:28.805Z,97.47
2022-12-18T01:18:56.183Z,97.62
2022-12-18T01:21:24.312Z,97.75
2022-12-18T01:23:57.435Z,98.04
2022-12-18T01:26:26.646Z,97.97
2022-12-18T01:28:55.426Z,98.34
2022-12-18T01:31:25.969Z,98.48
2022-12-18T01:33:53.129Z,98.67
2022-12-18T01:36:21.513Z,98.79
2022-12-18T01:38:48.863Z,99.07
2022-12-18T01:41:18.023Z,99.22
2022-12-18T01:43:50.686Z,99.26
2022-12-18T01:46:19.441Z,99.27
2022-12-18T01:48:48.772Z,99.22
2022-12-18T01:51:16.004Z,99.24
2022-12-18T01:53:43.516Z,99.31
2022-12-18T01:56:15.321Z,99.43
2022-12-18T01:59:04.759Z,99.72
2022-12-18T02:01:32.289Z,99.90
2022-12-18T02:04:22.025Z,99.82
2022-12-18T02:07:10.182Z,99.91
2022-12-18T02:09:54.110Z,99.87
2022-12-18T02:12:23.495Z,99.94
2022-12-18T02:14:57.368Z,99.98
2022-12-18T02:17:31.272Z,100.00
2022-12-18T02:20:13.025Z,100.00
2022-12-18T02:22:48.715Z,100.00
2022-12-18T02:25:34.413Z,100.00
2022-12-18T02:28:03.347Z,100.00
2022-12-18T02:30:32.519Z,100.00
2022-12-18T02:33:01.300Z,100.00
2022-12-18T02:35:30.589Z,100.00
2022-12-18T02:37:58.092Z,100.00
2022-12-18T02:40:27.186Z,100.00
2022-12-18T02:42:54.052Z,100.00
2022-12-18T02:45:21.152Z,100.00
2022-12-18T02:47:49.790Z,100.00
2022-12-18T02:50:23.115Z,100.00
2022-12-18T02:53:02.212Z,100.00
2022-12-18T02:55:59.798Z,100.00
2022-12-18T02:58:57.090Z,100.00
2022-12-18T03:01:58.087Z,100.00
2022-12-18T03:04:38.112Z,100.00
2022-12-18T03:07:10.917Z,100.00
2022-12-18T03:09:40.804Z,100.00
2022-12-18T03:12:39.736Z,100.00
2022-12-18T03:15:33.042Z,100.00
2022-12-18T03:18:07.219Z,100.00
2022-12-18T03:20:36.427Z,100.00
2022-12-18T03:23:20.234Z,100.00
2022-12-18T03:25:52.482Z,100.00
2022-12-18T03:28:22.391Z,100.00
2022-12-18T03:30:53.445Z,100.00
2022-12-18T03:33:41.341Z,100.00
2022-12-18T03:36:08.724Z,100.00
2022-12-18T03:38:35.574Z,100.00
2022-12-18T03:41:28.906Z,100.00
2022-12-18T03:44:12.480Z,100.00
2022-12-18T03:46:49.913Z,100.00
2022-12-18T03:49:32.056Z,100.00
2022-12-18T03:52:04.407Z,100.00
2022-12-18T03:54:31.866Z,100.00
2022-12-18T03:57:04.826Z,100.00
2022-12-18T03:59:32.115Z,100.00
2022-12-18T04:02:01.162Z,100.00
2022-12-18T04:04:29.374Z,100.00
2022-12-18T04:06:56.635Z,100.00
2022-12-18T04:09:24.133Z,100.00
2022-12-18T04:11:52.676Z,100.00
2022-12-18T04:14:19.454Z,100.00
2022-12-18T04:16:46.279Z,100.00
2022-12-18T04:19:13.441Z,100.00
2022-12-18T04:21:40.265Z,100.00
2022-12-18T04:24:07.371Z,100.00
2022-12-18T04:26:34.165Z,100.00
2022-12-18T04:29:01.133Z,100.00
2022-12-18T04:31:28.313Z,100.00
2022-12-18T04:33:55.358Z,100.00
2022-12-18T04:36:22.261Z,100.00
2022-12-18T04:38:49.361Z,100.00
2022-12-18T04:41:16.221Z,100.00
2022-12-18T04:43:43.258Z,100.00
2022-12-18T04:46:10.309Z,100.00
2022-12-18T04:48:38.004Z,100.00
2022-12-18T04:51:06.076Z,100.00
2022-12-18T04:53:33.406Z,100.00
2022-12-18T04:56:11.637Z,100.00
2022-12-18T04:58:40.084Z,100.00
2022-12-18T05:01:08.520Z,100.00
2022-12-18T05:03:36.493Z,100.00
2022-12-18T05:06:04.024Z,100.00
2022-12-18T05:08:30.993Z,100.00
2022-12-18T05:11:09.539Z,100.00
2022-12-18T05:13:39.441Z,100.00
2022-12-18T05:16:07.415Z,100.00
2022-12-18T05:18:35.504Z,100.00
2022-12-18T05:21:03.018Z,100.00
2022-12-18T05:23:30.350Z,100.00
2022-12-18T05:26:01.817Z,100.00
2022-12-18T05:28:30.382Z,100.00
2022-12-18T05:31:00.028Z,100.00
2022-12-18T05:33:29.375Z,100.00
2022-12-18T05:35:59.453Z,100.00
2022-12-18T05:38:27.522Z,100.00
2022-12-18T05:40:54.792Z,100.00
2022-12-18T05:43:25.053Z,100.00
2022-12-18T05:45:52.286Z,100.00
2022-12-18T05:48:19.691Z,100.00
2022-12-18T05:50:48.331Z,100.00
2022-12-18T05:53:18.152Z,100.00
2022-12-18T05:55:45.270Z,100.00
2022-12-18T05:58:13.749Z,100.00
2022-12-18T06:00:42.783Z,100.00
2022-12-18T06:03:11.399Z,100.00
2022-12-18T06:05:40.738Z,100.00
2022-12-18T06:08:07.648Z,100.00
2022-12-18T06:10:34.732Z,100.00
2022-12-18T06:13:01.682Z,100.00
2022-12-18T06:15:28.862Z,100.00
2022-12-18T06:17:55.985Z,100.00
2022-12-18T06:20:23.223Z,100.00
2022-12-18T06:22:50.405Z,100.00
2022-12-18T06:25:17.311Z,100.00
2022-12-18T06:27:44.433Z,100.00
2022-12-18T06:30:12.171Z,100.00
2022-12-18T06:32:39.467Z,100.00
2022-12-18T06:35:07.031Z,100.00
2022-12-18T06:37:33.893Z,100.00
2022-12-18T06:40:01.972Z,100.00
2022-12-18T06:42:29.996Z,100.00
2022-12-18T06:44:56.932Z,100.00
2022-12-18T06:47:23.806Z,100.00
2022-12-18T06:49:50.800Z,100.00
2022-12-18T06:52:17.657Z,100.00
2022-12-18T06:54:44.487Z,100.00
2022-12-18T06:57:11.289Z,100.00
2022-12-18T06:59:38.331Z,100.00
2022-12-18T07:02:05.839Z,100.00
2022-12-18T07:04:33.284Z,100.00
2022-12-18T07:07:00.370Z,100.00
2022-12-18T07:09:29.931Z,100.00
2022-12-18T07:11:56.834Z,100.00
2022-12-18T07:14:24.844Z,100.00
2022-12-18T07:16:51.709Z,100.00
2022-12-18T07:19:19.595Z,100.00
2022-12-18T07:21:46.745Z,100.00
2022-12-18T07:24:13.949Z,100.00
2022-12-18T07:26:40.858Z,100.00
2022-12-18T07:29:08.085Z,100.00
2022-12-18T07:31:35.033Z,100.00
2022-12-18T07:34:02.090Z,99.73
2022-12-18T07:36:29.000Z,98.81
2022-12-18T07:38:56.046Z,98.07
2022-12-18T07:41:22.951Z,97.80
2022-12-18T07:43:50.069Z,97.55
2022-12-18T07:46:17.202Z,97.88
2022-12-18T07:48:46.211Z,98.24
2022-12-18T07:51:17.523Z,99.04
2022-12-18T07:53:46.794Z,99.56
2022-12-18T07:56:28.643Z,99.93
2022-12-18T07:58:58.664Z,100.00
2022-12-18T08:01:26.533Z,100.00
2022-12-18T08:03:53.579Z,100.00
2022-12-18T08:06:23.979Z,100.00
2022-12-18T08:08:55.669Z,100.00
2022-12-18T08:11:25.003Z,100.00
2022-12-18T08:13:52.068Z,100.00
2022-12-18T08:16:19.631Z,100.00
2022-12-18T08:18:47.826Z,99.91
2022-12-18T08:21:17.884Z,95.72
2022-12-18T08:23:45.860Z,92.85
2022-12-18T08:26:13.500Z,88.41
2022-12-18T08:28:41.046Z,88.22
2022-12-18T08:31:16.711Z,89.10
2022-12-18T08:33:44.168Z,88.78
2022-12-18T08:36:11.883Z,88.97
2022-12-18T08:38:39.223Z,89.00
2022-12-18T08:41:08.121Z,88.86
2022-12-18T08:43:54.079Z,89.05
2022-12-18T08:46:22.880Z,89.51
2022-12-18T08:48:52.096Z,90.77
2022-12-18T08:51:20.235Z,91.09
2022-12-18T08:53:47.535Z,91.55
2022-12-18T08:56:14.997Z,93.00
2022-12-18T08:58:42.938Z,93.37
2022-12-18T09:01:12.231Z,93.72
2022-12-18T09:03:39.872Z,93.70
2022-12-18T09:06:07.489Z,93.49
2022-12-18T09:08:35.177Z,93.45
2022-12-18T09:11:02.293Z,93.37
2022-12-18T09:13:29.684Z,92.75
2022-12-18T09:15:56.843Z,92.24
2022-12-18T09:18:25.019Z,91.56
2022-12-18T09:20:53.815Z,90.90
2022-12-18T09:23:21.371Z,90.23
2022-12-18T09:25:48.317Z,88.78
2022-12-18T09:28:17.039Z,88.82
2022-12-18T09:30:50.202Z,88.62
2022-12-18T09:33:17.861Z,88.51
2022-12-18T09:35:45.742Z,87.10
2022-12-18T09:38:15.038Z,87.56
2022-12-18T09:43:07.415Z,86.90
2022-12-18T09:45:43.747Z,86.87
2022-12-18T09:48:24.768Z,86.67
2022-12-18T09:50:53.310Z,85.93
2022-12-18T09:53:25.328Z,85.55
2022-12-18T09:55:53.207Z,85.61
2022-12-18T09:58:34.291Z,85.43
2022-12-18T10:01:01.271Z,84.69
2022-12-18T10:03:28.478Z,84.79
2022-12-18T10:06:02.975Z,83.49
2022-12-18T10:08:32.453Z,83.39
2022-12-18T10:11:13.342Z,82.52
2022-12-18T10:13:48.853Z,81.79
2022-12-18T10:16:19.263Z,82.68
2022-12-18T10:19:01.526Z,81.93
2022-12-18T10:21:48.433Z,81.80
2022-12-18T10:24:39.859Z,81.01
2022-12-18T10:27:18.994Z,80.14
2022-12-18T10:29:46.869Z,80.01
2022-12-18T10:32:16.627Z,80.24
2022-12-18T10:36:13.602Z,77.65
2022-12-18T10:38:41.240Z,77.65
2022-12-18T10:41:27.668Z,79.72
2022-12-18T10:44:21.395Z,79.74
2022-12-18T10:46:50.449Z,79.09
2022-12-18T10:49:28.988Z,78.79
2022-12-18T10:52:26.010Z,78.07
2022-12-18T10:55:02.883Z,77.55
2022-12-18T10:57:38.891Z,78.25
2022-12-18T11:02:39.326Z,77.27
2022-12-18T11:05:29.446Z,78.56
2022-12-18T11:07:57.237Z,77.59
2022-12-18T11:10:34.989Z,77.74
2022-12-18T11:13:19.800Z,79.53
2022-12-18T11:15:47.236Z,79.15
2022-12-18T11:18:37.802Z,80.57
2022-12-18T11:21:10.794Z,80.41
2022-12-18T11:25:36.530Z,80.00
2022-12-18T11:28:34.637Z,80.40
2022-12-18T11:31:18.453Z,80.63
2022-12-18T11:34:26.763Z,80.11
2022-12-18T11:36:44.416Z,80.42
2022-12-18T11:39:43.949Z,80.84
2022-12-18T11:42:15.600Z,80.77
2022-12-18T11:44:46.102Z,80.60
2022-12-18T11:47:20.700Z,79.97
2022-12-18T11:49:50.623Z,80.06
2022-12-18T11:52:27.895Z,79.08
2022-12-18T11:55:01.383Z,79.48
2022-12-18T11:57:43.577Z,79.86
2022-12-18T12:00:17.461Z,79.51
2022-12-18T12:03:06.309Z,79.91
2022-12-18T12:05:42.159Z,79.92
2022-12-18T12:08:42.564Z,80.13
2022-12-18T12:11:32.908Z,79.82
2022-12-18T12:14:13.413Z,79.88
2022-12-18T12:16:55.872Z,79.58
2022-12-18T12:19:31.501Z,78.38
2022-12-18T12:22:22.020Z,79.15
2022-12-18T12:25:08.626Z,79.68
2022-12-18T12:27:41.664Z,79.32
2022-12-18T12:30:14.755Z,79.31
2022-12-18T12:33:04.752Z,79.30
2022-12-18T12:35:31.668Z,78.63
2022-12-18T12:38:38.526Z,79.23
2022-12-18T12:41:28.169Z,78.09
2022-12-18T12:43:59.439Z,78.57
2022-12-18T12:46:27.073Z,78.82
2022-12-18T12:49:00.224Z,78.80
2022-12-18T12:51:30.134Z,78.52
2022-12-18T12:53:58.778Z,77.82
2022-12-18T12:56:38.265Z,77.88
2022-12-18T12:59:20.365Z,77.30
2022-12-18T13:01:56.388Z,76.10
2022-12-18T13:04:53.826Z,77.14
2022-12-18T13:07:41.158Z,76.26
2022-12-18T13:10:28.727Z,76.49
2022-12-18T13:13:18.293Z,76.68
2022-12-18T13:16:05.441Z,76.49
2022-12-18T13:18:33.600Z,75.83
2022-12-18T13:21:03.334Z,75.37
2022-12-18T13:23:33.013Z,75.67
2022-12-18T13:26:11.676Z,75.32
2022-12-18T13:28:47.795Z,76.06
2022-12-18T13:31:39.626Z,76.11
2022-12-18T13:34:28.420Z,76.40
2022-12-18T13:36:58.395Z,77.01
2022-12-18T13:39:35.205Z,76.84
2022-12-18T13:42:05.798Z,77.01
2022-12-18T13:44:40.961Z,76.63
2022-12-18T13:47:29.438Z,76.69
2022-12-18T13:49:57.421Z,77.31
2022-12-18T13:52:36.522Z,77.65
2022-12-18T13:55:06.811Z,77.20
2022-12-18T13:57:44.829Z,77.50
2022-12-18T14:00:29.479Z,77.71
2022-12-18T14:02:58.272Z,78.00
2022-12-18T14:05:29.661Z,78.69
2022-12-18T14:08:00.579Z,79.15
2022-12-18T14:10:47.588Z,79.71
2022-12-18T14:13:42.350Z,80.14
2022-12-18T14:16:15.505Z,80.60
2022-12-18T14:18:55.466Z,81.01
2022-12-18T14:21:30.272Z,81.47
2022-12-18T14:24:17.877Z,81.97
2022-12-18T14:26:48.096Z,82.38
2022-12-18T14:29:26.911Z,82.90
2022-12-18T14:32:11.783Z,83.31
2022-12-18T14:34:41.998Z,83.95
2022-12-18T14:37:12.730Z,84.67
2022-12-18T14:39:39.919Z,85.18
2022-12-18T14:42:06.765Z,85.64
2022-12-18T14:44:44.297Z,86.40
2022-12-18T14:47:18.013Z,86.96
2022-12-18T14:49:45.081Z,87.52
2022-12-18T14:52:24.363Z,88.00
2022-12-18T14:54:51.812Z,88.62
2022-12-18T14:57:29.194Z,88.93
2022-12-18T15:00:12.332Z,89.45
2022-12-18T15:02:39.388Z,89.94
2022-12-18T15:05:19.151Z,90.31
2022-12-18T15:07:51.509Z,90.72
2022-12-18T15:10:21.520Z,91.11
2022-12-18T15:12:49.107Z,91.44
2022-12-18T15:15:34.766Z,91.86
2022-12-18T15:18:22.640Z,92.33
2022-12-18T15:20:55.849Z,92.52
2022-12-18T15:23:27.067Z,92.96
2022-12-18T15:26:09.983Z,93.07
2022-12-18T15:28:39.084Z,93.50
2022-12-18T15:31:24.400Z,93.77
2022-12-18T15:33:54.294Z,94.13
2022-12-18T15:36:26.814Z,94.33
2022-12-18T15:39:00.950Z,94.86
2022-12-18T15:41:36.223Z,95.27
2022-12-18T15:44:04.225Z,95.51
2022-12-18T15:46:32.294Z,95.82
2022-12-18T15:49:02.467Z,95.56
2022-12-18T15:51:35.202Z,96.24
2022-12-18T15:54:05.984Z,96.32
2022-12-18T15:56:51.631Z,96.66
2022-12-18T15:59:20.448Z,96.67
2022-12-18T16:01:49.668Z,96.48
2022-12-18T16:04:18.407Z,96.38
2022-12-18T16:07:13.136Z,96.43
2022-12-18T16:09:32.671Z,96.73
2022-12-18T16:11:59.543Z,99.34
2022-12-18T16:14:28.607Z,99.10
2022-12-18T16:17:01.083Z,99.18
2022-12-18T16:19:28.863Z,99.41
2022-12-18T16:21:57.170Z,99.40
2022-12-18T16:24:26.284Z,99.48
2022-12-18T16:26:53.992Z,99.15
2022-12-18T16:29:28.113Z,99.21
2022-12-18T16:31:56.903Z,99.30
2022-12-18T16:34:29.704Z,99.46
2022-12-18T16:37:04.977Z,99.28
2022-12-18T16:39:37.269Z,99.08
2022-12-18T16:42:06.427Z,99.10
2022-12-18T16:44:36.805Z,98.90
2022-12-18T16:47:05.255Z,99.00
2022-12-18T16:49:34.154Z,99.19
2022-12-18T16:52:01.289Z,99.14
2022-12-18T16:54:30.514Z,99.33
2022-12-18T16:56:58.052Z,99.45
2022-12-18T16:59:26.727Z,99.40
2022-12-18T17:01:55.648Z,99.34
2022-12-18T17:04:23.570Z,99.38
2022-12-18T17:06:52.117Z,99.30
2022-12-18T17:09:26.354Z,99.27
2022-12-18T17:11:54.589Z,99.17
2022-12-18T17:14:23.852Z,99.04
2022-12-18T17:17:19.240Z,98.85
2022-12-18T17:19:41.017Z,98.93
2022-12-18T17:22:08.540Z,99.30
2022-12-18T17:24:36.124Z,99.41
2022-12-18T17:27:04.573Z,99.25
2022-12-18T17:29:31.943Z,99.25
2022-12-18T17:32:00.474Z,99.55
2022-12-18T17:34:28.063Z,100.00
2022-12-18T17:36:55.467Z,100.00
2022-12-18T17:39:23.630Z,100.00
2022-12-18T17:41:50.787Z,100.00
2022-12-18T17:44:18.114Z,100.00
2022-12-18T17:46:46.253Z,100.00
2022-12-18T17:49:14.741Z,100.00
2022-12-18T17:51:43.093Z,100.00
2022-12-18T17:54:11.006Z,100.00
2022-12-18T17:56:39.207Z,100.00
2022-12-18T17:59:07.272Z,100.00
2022-12-18T18:01:38.528Z,100.00
2022-12-18T18:04:09.944Z,100.00
2022-12-18T18:06:39.389Z,100.00
2022-12-18T18:09:11.794Z,100.00
2022-12-18T18:12:07.253Z,100.00
2022-12-18T18:14:34.362Z,100.00
2022-12-18T18:17:04.647Z,100.00
2022-12-18T18:19:33.201Z,100.00
2022-12-18T18:22:01.516Z,100.00
2022-12-18T18:24:31.267Z,100.00
2022-12-18T18:27:00.173Z,100.00
2022-12-18T18:29:30.451Z,100.00
2022-12-18T18:31:57.885Z,100.00
2022-12-18T18:34:27.473Z,100.00
2022-12-18T18:36:54.859Z,100.00
2022-12-18T18:39:21.844Z,100.00
2022-12-18T18:41:49.108Z,100.00
2022-12-18T18:44:17.609Z,100.00
2022-12-18T18:46:45.167Z,100.00
2022-12-18T18:49:14.085Z,100.00
2022-12-18T18:51:42.187Z,100.00
2022-12-18T18:54:09.995Z,100.00
2022-12-18T18:57:03.829Z,100.00
2022-12-18T18:59:30.377Z,100.00
2022-12-18T19:02:00.670Z,100.00
2022-12-18T19:04:36.436Z,100.00
2022-12-18T19:07:05.411Z,100.00
2022-12-18T19:09:32.233Z,100.00
2022-12-18T19:12:18.254Z,100.00
2022-12-18T19:14:45.583Z,100.00
2022-12-18T19:17:16.037Z,100.00
2022-12-18T19:19:43.264Z,100.00
2022-12-18T19:22:11.116Z,100.00
2022-12-18T19:24:38.303Z,100.00
2022-12-18T19:27:05.386Z,100.00
2022-12-18T19:29:33.926Z,100.00
2022-12-18T19:32:01.311Z,100.00
2022-12-18T19:34:28.298Z,100.00
2022-12-18T19:36:59.803Z,100.00
2022-12-18T19:39:28.505Z,100.00
2022-12-18T19:41:55.760Z,100.00
2022-12-18T19:44:22.873Z,100.00
2022-12-18T19:46:51.494Z,100.00
2022-12-18T19:49:18.684Z,100.00
2022-12-18T19:51:46.096Z,100.00
2022-12-18T19:54:16.914Z,100.00
2022-12-18T19:56:45.408Z,100.00
2022-12-18T19:59:12.652Z,100.00
2022-12-18T20:01:40.399Z,100.00
2022-12-18T20:04:07.921Z,100.00
2022-12-18T20:06:46.069Z,100.00
2022-12-18T20:09:13.146Z,100.00
2022-12-18T20:11:41.793Z,100.00
2022-12-18T20:14:14.131Z,100.00
2022-12-18T20:16:44.013Z,100.00
2022-12-18T20:19:12.813Z,100.00
2022-12-18T20:21:40.376Z,100.00
2022-12-18T20:24:08.694Z,100.00
2022-12-18T20:26:35.677Z,100.00
2022-12-18T20:29:02.760Z,100.00
2022-12-18T20:31:30.011Z,100.00
2022-12-18T20:34:00.254Z,100.00
2022-12-18T20:36:29.576Z,100.00
2022-12-18T20:38:59.445Z,100.00
2022-12-18T20:41:37.635Z,100.00
2022-12-18T20:44:10.258Z,100.00
2022-12-18T20:46:52.010Z,100.00
2022-12-18T20:49:18.902Z,100.00
2022-12-18T20:51:46.257Z,100.00
2022-12-18T20:54:13.098Z,100.00
2022-12-18T20:56:40.023Z,100.00
2022-12-18T20:59:07.315Z,100.00
2022-12-18T21:01:34.484Z,100.00
2022-12-18T21:04:03.370Z,100.00
2022-12-18T21:06:30.338Z,100.00
2022-12-18T21:08:57.232Z,100.00
2022-12-18T21:11:49.464Z,100.00
2022-12-18T21:14:22.540Z,100.00
2022-12-18T21:16:50.065Z,100.00
2022-12-18T21:19:25.895Z,100.00
2022-12-18T21:21:53.727Z,100.00
2022-12-18T21:24:20.892Z,100.00
2022-12-18T21:26:48.469Z,100.00
2022-12-18T21:29:18.280Z,100.00
2022-12-18T21:31:45.497Z,100.00
2022-12-18T21:34:18.114Z,100.00
2022-12-18T21:36:45.672Z,100.00
2022-12-18T21:39:14.844Z,100.00
2022-12-18T21:42:00.257Z,100.00
2022-12-18T21:44:27.379Z,100.00
2022-12-18T21:46:58.975Z,100.00
2022-12-18T21:49:30.773Z,100.00
2022-12-18T21:51:59.009Z,100.00
2022-12-18T21:54:27.061Z,100.00
2022-12-18T21:56:58.591Z,100.00
2022-12-18T21:59:30.345Z,100.00
2022-12-18T22:02:00.003Z,100.00
2022-12-18T22:04:27.726Z,100.00
2022-12-18T22:06:55.352Z,100.00
2022-12-18T22:09:23.866Z,100.00
2022-12-18T22:11:51.278Z,100.00
2022-12-18T22:14:18.117Z,100.00
2022-12-18T22:16:45.202Z,100.00
2022-12-18T22:19:12.350Z,100.00
2022-12-18T22:21:46.503Z,100.00
2022-12-18T22:24:15.092Z,100.00
2022-12-18T22:26:42.553Z,100.00
2022-12-18T22:29:36.982Z,100.00
2022-12-18T22:32:05.304Z,100.00
2022-12-18T22:34:36.481Z,100.00
2022-12-18T22:37:03.613Z,100.00
2022-12-18T22:39:31.495Z,100.00
2022-12-18T22:41:58.814Z,100.00
2022-12-18T22:44:25.905Z,100.00
2022-12-18T22:47:05.460Z,100.00
2022-12-18T22:49:35.536Z,100.00
2022-12-18T22:52:07.297Z,100.00
2022-12-18T22:54:34.339Z,100.00
2022-12-18T22:57:01.124Z,100.00
2022-12-18T22:59:28.084Z,100.00
2022-12-18T23:01:59.152Z,100.00
2022-12-18T23:04:36.237Z,100.00
2022-12-18T23:07:05.354Z,100.00
2022-12-18T23:09:32.627Z,100.00
2022-12-18T23:11:59.651Z,100.00
2022-12-18T23:14:26.686Z,100.00
2022-12-18T23:16:53.526Z,100.00
2022-12-18T23:19:21.095Z,100.00
2022-12-18T23:21:50.563Z,100.00
2022-12-18T23:24:17.754Z,100.00
2022-12-18T23:26:44.565Z,100.00
2022-12-18T23:29:11.369Z,100.00
2022-12-18T23:31:39.599Z,100.00
2022-12-18T23:34:07.502Z,100.00
2022-12-18T23:36:45.300Z,100.00
2022-12-18T23:39:15.435Z,100.00
2022-12-18T23:41:57.290Z,100.00
2022-12-18T23:44:24.185Z,100.00
2022-12-18T23:46:51.015Z,100.00
2022-12-18T23:49:17.871Z,100.00
2022-12-18T23:51:44.652Z,100.00
2022-12-18T23:54:11.435Z,100.00
2022-12-18T23:56:38.224Z,100.00
2022-12-18T23:59:05.124Z,100.00
